sensor_id;sensor_type;location;lat;lon;timestamp;P1;durP1;ratioP1;P2;durP2;ratioP2
64903;SDS011;51401;48.882;12.598;2023-04-25T00:02:23;3.00;;;2.50;;
64903;SDS011;51401;48.882;12.598;2023-04-25T00:04:48;2.53;;;2.15;;
64903;SDS011;51401;48.882;12.598;2023-04-25T00:07:14;2.97;;;2.40;;
64903;SDS011;51401;48.882;12.598;2023-04-25T00:09:39;2.47;;;2.20;;
64903;SDS011;51401;48.882;12.598;2023-04-25T00:12:04;3.90;;;3.25;;
64903;SDS011;51401;48.882;12.598;2023-04-25T00:14:30;4.55;;;2.75;;
64903;SDS011;51401;48.882;12.598;2023-04-25T00:16:58;3.25;;;2.50;;
64903;SDS011;51401;48.882;12.598;2023-04-25T00:19:23;3.20;;;2.70;;
64903;SDS011;51401;48.882;12.598;2023-04-25T00:21:49;2.92;;;2.50;;
64903;SDS011;51401;48.882;12.598;2023-04-25T00:24:15;3.30;;;2.75;;
64903;SDS011;51401;48.882;12.598;2023-04-25T00:26:40;3.78;;;3.08;;
64903;SDS011;51401;48.882;12.598;2023-04-25T00:29:05;4.63;;;3.10;;
64903;SDS011;51401;48.882;12.598;2023-04-25T00:31:30;3.20;;;2.45;;
64903;SDS011;51401;48.882;12.598;2023-04-25T00:33:56;3.80;;;2.85;;
64903;SDS011;51401;48.882;12.598;2023-04-25T00:36:21;4.20;;;2.88;;
64903;SDS011;51401;48.882;12.598;2023-04-25T00:38:47;4.03;;;3.08;;
64903;SDS011;51401;48.882;12.598;2023-04-25T00:41:12;3.90;;;2.47;;
64903;SDS011;51401;48.882;12.598;2023-04-25T00:43:38;3.80;;;2.97;;
64903;SDS011;51401;48.882;12.598;2023-04-25T00:46:05;4.95;;;3.20;;
64903;SDS011;51401;48.882;12.598;2023-04-25T00:48:30;3.97;;;3.10;;
64903;SDS011;51401;48.882;12.598;2023-04-25T00:50:57;4.03;;;3.15;;
64903;SDS011;51401;48.882;12.598;2023-04-25T00:53:24;4.10;;;2.60;;
64903;SDS011;51401;48.882;12.598;2023-04-25T00:55:51;3.58;;;2.72;;
64903;SDS011;51401;48.882;12.598;2023-04-25T00:58:17;3.42;;;2.45;;
64903;SDS011;51401;48.882;12.598;2023-04-25T01:00:44;4.40;;;2.63;;
64903;SDS011;51401;48.882;12.598;2023-04-25T01:03:10;3.95;;;2.72;;
64903;SDS011;51401;48.882;12.598;2023-04-25T01:05:36;4.15;;;2.80;;
64903;SDS011;51401;48.882;12.598;2023-04-25T01:08:01;4.07;;;3.17;;
64903;SDS011;51401;48.882;12.598;2023-04-25T01:10:27;4.03;;;2.58;;
64903;SDS011;51401;48.882;12.598;2023-04-25T01:12:52;2.72;;;2.40;;
64903;SDS011;51401;48.882;12.598;2023-04-25T01:15:18;3.33;;;2.72;;
64903;SDS011;51401;48.882;12.598;2023-04-25T01:17:43;5.00;;;3.00;;
64903;SDS011;51401;48.882;12.598;2023-04-25T01:20:09;3.75;;;3.10;;
64903;SDS011;51401;48.882;12.598;2023-04-25T01:22:36;4.15;;;2.90;;
64903;SDS011;51401;48.882;12.598;2023-04-25T01:25:01;3.47;;;2.72;;
64903;SDS011;51401;48.882;12.598;2023-04-25T01:27:27;6.13;;;3.42;;
64903;SDS011;51401;48.882;12.598;2023-04-25T01:29:53;4.78;;;3.15;;
64903;SDS011;51401;48.882;12.598;2023-04-25T01:32:19;4.10;;;3.30;;
64903;SDS011;51401;48.882;12.598;2023-04-25T01:34:46;6.63;;;3.35;;
64903;SDS011;51401;48.882;12.598;2023-04-25T01:37:11;4.03;;;3.13;;
64903;SDS011;51401;48.882;12.598;2023-04-25T01:39:37;4.60;;;3.05;;
64903;SDS011;51401;48.882;12.598;2023-04-25T01:42:02;4.22;;;3.10;;
64903;SDS011;51401;48.882;12.598;2023-04-25T01:44:27;3.20;;;2.47;;
64903;SDS011;51401;48.882;12.598;2023-04-25T01:46:53;4.10;;;2.90;;
64903;SDS011;51401;48.882;12.598;2023-04-25T01:49:19;4.18;;;2.83;;
64903;SDS011;51401;48.882;12.598;2023-04-25T01:51:44;3.53;;;3.03;;
64903;SDS011;51401;48.882;12.598;2023-04-25T01:54:09;3.87;;;3.00;;
64903;SDS011;51401;48.882;12.598;2023-04-25T01:56:36;3.50;;;2.88;;
64903;SDS011;51401;48.882;12.598;2023-04-25T01:59:03;3.63;;;2.92;;
64903;SDS011;51401;48.882;12.598;2023-04-25T02:01:29;4.65;;;3.50;;
64903;SDS011;51401;48.882;12.598;2023-04-25T02:03:55;3.85;;;3.10;;
64903;SDS011;51401;48.882;12.598;2023-04-25T02:06:20;4.47;;;3.55;;
64903;SDS011;51401;48.882;12.598;2023-04-25T02:08:45;4.18;;;3.58;;
64903;SDS011;51401;48.882;12.598;2023-04-25T02:11:11;3.92;;;3.53;;
64903;SDS011;51401;48.882;12.598;2023-04-25T02:13:36;4.32;;;3.53;;
64903;SDS011;51401;48.882;12.598;2023-04-25T02:16:01;7.13;;;3.50;;
64903;SDS011;51401;48.882;12.598;2023-04-25T02:18:26;4.35;;;3.35;;
64903;SDS011;51401;48.882;12.598;2023-04-25T02:20:52;5.18;;;3.70;;
64903;SDS011;51401;48.882;12.598;2023-04-25T02:23:17;5.07;;;3.70;;
64903;SDS011;51401;48.882;12.598;2023-04-25T02:25:44;4.68;;;3.50;;
64903;SDS011;51401;48.882;12.598;2023-04-25T02:28:09;5.70;;;3.13;;
64903;SDS011;51401;48.882;12.598;2023-04-25T02:30:35;4.15;;;3.10;;
64903;SDS011;51401;48.882;12.598;2023-04-25T02:33:01;4.53;;;3.58;;
64903;SDS011;51401;48.882;12.598;2023-04-25T02:35:26;5.45;;;3.35;;
64903;SDS011;51401;48.882;12.598;2023-04-25T02:37:51;5.07;;;3.25;;
64903;SDS011;51401;48.882;12.598;2023-04-25T02:40:17;4.05;;;3.22;;
64903;SDS011;51401;48.882;12.598;2023-04-25T02:42:42;3.80;;;3.42;;
64903;SDS011;51401;48.882;12.598;2023-04-25T02:45:07;4.75;;;3.42;;
64903;SDS011;51401;48.882;12.598;2023-04-25T02:47:33;5.68;;;3.63;;
64903;SDS011;51401;48.882;12.598;2023-04-25T02:49:58;4.40;;;3.13;;
64903;SDS011;51401;48.882;12.598;2023-04-25T02:52:24;4.93;;;3.53;;
64903;SDS011;51401;48.882;12.598;2023-04-25T02:54:49;4.78;;;3.10;;
64903;SDS011;51401;48.882;12.598;2023-04-25T02:57:15;4.70;;;3.58;;
64903;SDS011;51401;48.882;12.598;2023-04-25T02:59:40;6.20;;;4.68;;
64903;SDS011;51401;48.882;12.598;2023-04-25T03:02:05;6.65;;;4.35;;
64903;SDS011;51401;48.882;12.598;2023-04-25T03:04:30;5.60;;;3.63;;
64903;SDS011;51401;48.882;12.598;2023-04-25T03:06:56;5.03;;;3.78;;
64903;SDS011;51401;48.882;12.598;2023-04-25T03:09:21;7.13;;;3.50;;
64903;SDS011;51401;48.882;12.598;2023-04-25T03:11:47;5.47;;;3.97;;
64903;SDS011;51401;48.882;12.598;2023-04-25T03:14:12;3.70;;;2.92;;
64903;SDS011;51401;48.882;12.598;2023-04-25T03:16:38;5.18;;;3.20;;
64903;SDS011;51401;48.882;12.598;2023-04-25T03:19:04;3.33;;;3.03;;
64903;SDS011;51401;48.882;12.598;2023-04-25T03:21:30;4.93;;;3.50;;
64903;SDS011;51401;48.882;12.598;2023-04-25T03:23:57;5.78;;;3.35;;
64903;SDS011;51401;48.882;12.598;2023-04-25T03:26:22;4.40;;;3.03;;
64903;SDS011;51401;48.882;12.598;2023-04-25T03:28:48;4.10;;;3.30;;
64903;SDS011;51401;48.882;12.598;2023-04-25T03:31:13;5.13;;;3.50;;
64903;SDS011;51401;48.882;12.598;2023-04-25T03:33:38;4.60;;;3.28;;
64903;SDS011;51401;48.882;12.598;2023-04-25T03:36:04;4.22;;;3.55;;
64903;SDS011;51401;48.882;12.598;2023-04-25T03:38:30;4.13;;;3.08;;
64903;SDS011;51401;48.882;12.598;2023-04-25T03:40:55;3.53;;;2.70;;
64903;SDS011;51401;48.882;12.598;2023-04-25T03:43:21;4.35;;;2.88;;
64903;SDS011;51401;48.882;12.598;2023-04-25T03:45:46;4.80;;;3.45;;
64903;SDS011;51401;48.882;12.598;2023-04-25T03:48:11;4.37;;;3.70;;
64903;SDS011;51401;48.882;12.598;2023-04-25T03:50:37;3.75;;;3.40;;
64903;SDS011;51401;48.882;12.598;2023-04-25T03:53:02;4.70;;;3.47;;
64903;SDS011;51401;48.882;12.598;2023-04-25T03:55:27;4.60;;;3.23;;
64903;SDS011;51401;48.882;12.598;2023-04-25T03:57:52;4.47;;;3.45;;
64903;SDS011;51401;48.882;12.598;2023-04-25T04:00:18;5.75;;;4.15;;
64903;SDS011;51401;48.882;12.598;2023-04-25T04:02:43;5.93;;;3.50;;
64903;SDS011;51401;48.882;12.598;2023-04-25T04:05:08;6.95;;;3.75;;
64903;SDS011;51401;48.882;12.598;2023-04-25T04:07:34;4.28;;;3.50;;
64903;SDS011;51401;48.882;12.598;2023-04-25T04:10:04;3.60;;;2.88;;
64903;SDS011;51401;48.882;12.598;2023-04-25T04:12:31;3.45;;;2.85;;
64903;SDS011;51401;48.882;12.598;2023-04-25T04:14:56;3.53;;;2.70;;
64903;SDS011;51401;48.882;12.598;2023-04-25T04:17:21;4.77;;;3.30;;
64903;SDS011;51401;48.882;12.598;2023-04-25T04:19:46;4.38;;;3.40;;
64903;SDS011;51401;48.882;12.598;2023-04-25T04:22:12;3.65;;;2.95;;
64903;SDS011;51401;48.882;12.598;2023-04-25T04:24:37;4.05;;;3.17;;
64903;SDS011;51401;48.882;12.598;2023-04-25T04:27:02;4.15;;;3.10;;
64903;SDS011;51401;48.882;12.598;2023-04-25T04:29:28;5.15;;;3.28;;
64903;SDS011;51401;48.882;12.598;2023-04-25T04:31:53;4.03;;;3.17;;
64903;SDS011;51401;48.882;12.598;2023-04-25T04:34:18;7.47;;;3.60;;
64903;SDS011;51401;48.882;12.598;2023-04-25T04:36:44;4.43;;;3.53;;
64903;SDS011;51401;48.882;12.598;2023-04-25T04:39:11;5.63;;;4.07;;
64903;SDS011;51401;48.882;12.598;2023-04-25T04:41:37;4.25;;;3.25;;
64903;SDS011;51401;48.882;12.598;2023-04-25T04:44:02;5.20;;;3.92;;
64903;SDS011;51401;48.882;12.598;2023-04-25T04:46:28;4.45;;;3.58;;
64903;SDS011;51401;48.882;12.598;2023-04-25T04:48:53;6.88;;;4.70;;
64903;SDS011;51401;48.882;12.598;2023-04-25T04:51:19;4.75;;;3.83;;
64903;SDS011;51401;48.882;12.598;2023-04-25T04:53:45;5.25;;;4.05;;
64903;SDS011;51401;48.882;12.598;2023-04-25T04:56:10;5.85;;;3.95;;
64903;SDS011;51401;48.882;12.598;2023-04-25T04:58:36;4.65;;;3.80;;
64903;SDS011;51401;48.882;12.598;2023-04-25T05:01:01;7.10;;;4.07;;
64903;SDS011;51401;48.882;12.598;2023-04-25T05:03:27;5.10;;;3.60;;
64903;SDS011;51401;48.882;12.598;2023-04-25T05:05:52;5.28;;;3.58;;
64903;SDS011;51401;48.882;12.598;2023-04-25T05:08:17;5.10;;;4.10;;
64903;SDS011;51401;48.882;12.598;2023-04-25T05:10:42;4.20;;;3.53;;
64903;SDS011;51401;48.882;12.598;2023-04-25T05:13:08;4.90;;;3.92;;
64903;SDS011;51401;48.882;12.598;2023-04-25T05:15:33;4.97;;;3.60;;
64903;SDS011;51401;48.882;12.598;2023-04-25T05:17:58;6.15;;;3.83;;
64903;SDS011;51401;48.882;12.598;2023-04-25T05:20:23;6.23;;;4.00;;
64903;SDS011;51401;48.882;12.598;2023-04-25T05:22:49;4.22;;;3.70;;
64903;SDS011;51401;48.882;12.598;2023-04-25T05:25:14;5.07;;;3.55;;
64903;SDS011;51401;48.882;12.598;2023-04-25T05:27:39;4.82;;;4.03;;
64903;SDS011;51401;48.882;12.598;2023-04-25T05:30:05;4.03;;;3.55;;
64903;SDS011;51401;48.882;12.598;2023-04-25T05:32:31;5.95;;;4.10;;
64903;SDS011;51401;48.882;12.598;2023-04-25T05:34:56;5.60;;;3.63;;
64903;SDS011;51401;48.882;12.598;2023-04-25T05:37:21;6.17;;;3.60;;
64903;SDS011;51401;48.882;12.598;2023-04-25T05:39:46;7.60;;;4.63;;
64903;SDS011;51401;48.882;12.598;2023-04-25T05:42:12;5.30;;;4.20;;
64903;SDS011;51401;48.882;12.598;2023-04-25T05:44:37;5.45;;;3.83;;
64903;SDS011;51401;48.882;12.598;2023-04-25T05:47:02;3.78;;;2.72;;
64903;SDS011;51401;48.882;12.598;2023-04-25T05:49:29;4.25;;;3.17;;
64903;SDS011;51401;48.882;12.598;2023-04-25T05:51:55;5.10;;;3.33;;
64903;SDS011;51401;48.882;12.598;2023-04-25T05:54:20;5.35;;;3.92;;
64903;SDS011;51401;48.882;12.598;2023-04-25T05:56:45;4.93;;;3.40;;
64903;SDS011;51401;48.882;12.598;2023-04-25T05:59:11;6.83;;;4.33;;
64903;SDS011;51401;48.882;12.598;2023-04-25T06:01:36;5.07;;;3.97;;
64903;SDS011;51401;48.882;12.598;2023-04-25T06:04:01;4.50;;;3.58;;
64903;SDS011;51401;48.882;12.598;2023-04-25T06:06:27;5.10;;;3.60;;
64903;SDS011;51401;48.882;12.598;2023-04-25T06:08:52;5.03;;;3.80;;
64903;SDS011;51401;48.882;12.598;2023-04-25T06:11:18;4.88;;;3.75;;
64903;SDS011;51401;48.882;12.598;2023-04-25T06:13:43;4.90;;;3.35;;
64903;SDS011;51401;48.882;12.598;2023-04-25T06:16:08;3.70;;;2.92;;
64903;SDS011;51401;48.882;12.598;2023-04-25T06:18:33;4.28;;;3.20;;
64903;SDS011;51401;48.882;12.598;2023-04-25T06:20:59;4.90;;;3.03;;
64903;SDS011;51401;48.882;12.598;2023-04-25T06:23:24;4.35;;;2.92;;
64903;SDS011;51401;48.882;12.598;2023-04-25T06:25:49;6.20;;;3.83;;
64903;SDS011;51401;48.882;12.598;2023-04-25T06:28:15;5.03;;;3.33;;
64903;SDS011;51401;48.882;12.598;2023-04-25T06:30:40;3.20;;;2.47;;
64903;SDS011;51401;48.882;12.598;2023-04-25T06:33:06;4.55;;;2.65;;
64903;SDS011;51401;48.882;12.598;2023-04-25T06:35:31;3.42;;;2.10;;
64903;SDS011;51401;48.882;12.598;2023-04-25T06:37:56;2.97;;;2.33;;
64903;SDS011;51401;48.882;12.598;2023-04-25T06:40:22;3.27;;;2.70;;
64903;SDS011;51401;48.882;12.598;2023-04-25T06:42:47;3.20;;;2.13;;
64903;SDS011;51401;48.882;12.598;2023-04-25T06:45:12;3.97;;;2.20;;
64903;SDS011;51401;48.882;12.598;2023-04-25T06:47:38;2.40;;;2.13;;
64903;SDS011;51401;48.882;12.598;2023-04-25T06:50:03;3.13;;;1.80;;
64903;SDS011;51401;48.882;12.598;2023-04-25T06:52:29;3.08;;;2.22;;
64903;SDS011;51401;48.882;12.598;2023-04-25T06:54:54;4.00;;;2.15;;
64903;SDS011;51401;48.882;12.598;2023-04-25T06:57:20;3.83;;;2.70;;
64903;SDS011;51401;48.882;12.598;2023-04-25T06:59:45;3.45;;;2.45;;
64903;SDS011;51401;48.882;12.598;2023-04-25T07:02:10;2.78;;;2.15;;
64903;SDS011;51401;48.882;12.598;2023-04-25T07:04:36;2.50;;;2.10;;
64903;SDS011;51401;48.882;12.598;2023-04-25T07:07:01;2.40;;;2.10;;
64903;SDS011;51401;48.882;12.598;2023-04-25T07:09:28;2.40;;;1.90;;
64903;SDS011;51401;48.882;12.598;2023-04-25T07:11:53;2.47;;;1.98;;
64903;SDS011;51401;48.882;12.598;2023-04-25T07:14:18;2.67;;;1.90;;
64903;SDS011;51401;48.882;12.598;2023-04-25T07:16:44;4.47;;;2.22;;
64903;SDS011;51401;48.882;12.598;2023-04-25T07:19:09;3.97;;;2.28;;
64903;SDS011;51401;48.882;12.598;2023-04-25T07:21:34;3.15;;;2.47;;
64903;SDS011;51401;48.882;12.598;2023-04-25T07:24:01;2.72;;;2.40;;
64903;SDS011;51401;48.882;12.598;2023-04-25T07:26:26;3.78;;;2.70;;
64903;SDS011;51401;48.882;12.598;2023-04-25T07:28:52;3.45;;;2.65;;
64903;SDS011;51401;48.882;12.598;2023-04-25T07:31:17;2.80;;;2.23;;
64903;SDS011;51401;48.882;12.598;2023-04-25T07:33:43;3.22;;;2.50;;
64903;SDS011;51401;48.882;12.598;2023-04-25T07:36:10;3.85;;;2.80;;
64903;SDS011;51401;48.882;12.598;2023-04-25T07:38:35;3.05;;;2.75;;
64903;SDS011;51401;48.882;12.598;2023-04-25T07:41:01;2.63;;;2.30;;
64903;SDS011;51401;48.882;12.598;2023-04-25T07:43:26;3.92;;;2.50;;
64903;SDS011;51401;48.882;12.598;2023-04-25T07:45:51;4.00;;;2.73;;
64903;SDS011;51401;48.882;12.598;2023-04-25T07:48:17;2.65;;;2.30;;
64903;SDS011;51401;48.882;12.598;2023-04-25T07:50:43;3.42;;;2.50;;
64903;SDS011;51401;48.882;12.598;2023-04-25T07:53:09;3.05;;;2.65;;
64903;SDS011;51401;48.882;12.598;2023-04-25T07:55:34;5.28;;;3.17;;
64903;SDS011;51401;48.882;12.598;2023-04-25T07:58:01;4.65;;;2.70;;
64903;SDS011;51401;48.882;12.598;2023-04-25T08:00:26;2.75;;;2.50;;
64903;SDS011;51401;48.882;12.598;2023-04-25T08:02:52;3.50;;;2.53;;
64903;SDS011;51401;48.882;12.598;2023-04-25T08:05:17;4.07;;;3.00;;
64903;SDS011;51401;48.882;12.598;2023-04-25T08:07:42;5.40;;;4.10;;
64903;SDS011;51401;48.882;12.598;2023-04-25T08:10:08;3.42;;;3.10;;
64903;SDS011;51401;48.882;12.598;2023-04-25T08:12:34;5.05;;;2.92;;
64903;SDS011;51401;48.882;12.598;2023-04-25T08:14:59;4.43;;;2.97;;
64903;SDS011;51401;48.882;12.598;2023-04-25T08:17:24;3.88;;;3.10;;
64903;SDS011;51401;48.882;12.598;2023-04-25T08:19:50;6.32;;;3.08;;
64903;SDS011;51401;48.882;12.598;2023-04-25T08:22:15;2.80;;;2.60;;
64903;SDS011;51401;48.882;12.598;2023-04-25T08:24:41;3.47;;;2.78;;
64903;SDS011;51401;48.882;12.598;2023-04-25T08:27:06;3.50;;;2.97;;
64903;SDS011;51401;48.882;12.598;2023-04-25T08:29:32;4.18;;;3.03;;
64903;SDS011;51401;48.882;12.598;2023-04-25T08:31:58;3.38;;;2.70;;
64903;SDS011;51401;48.882;12.598;2023-04-25T08:34:23;3.17;;;2.88;;
64903;SDS011;51401;48.882;12.598;2023-04-25T08:36:50;3.35;;;2.88;;
64903;SDS011;51401;48.882;12.598;2023-04-25T08:39:15;3.85;;;2.88;;
64903;SDS011;51401;48.882;12.598;2023-04-25T08:41:41;4.43;;;3.05;;
64903;SDS011;51401;48.882;12.598;2023-04-25T08:44:06;3.38;;;2.42;;
64903;SDS011;51401;48.882;12.598;2023-04-25T08:46:35;3.13;;;2.72;;
64903;SDS011;51401;48.882;12.598;2023-04-25T08:49:03;4.85;;;3.15;;
64903;SDS011;51401;48.882;12.598;2023-04-25T08:51:30;3.50;;;2.95;;
64903;SDS011;51401;48.882;12.598;2023-04-25T08:53:57;3.75;;;3.38;;
64903;SDS011;51401;48.882;12.598;2023-04-25T08:56:33;2.80;;;2.60;;
64903;SDS011;51401;48.882;12.598;2023-04-25T08:58:59;3.25;;;2.50;;
64903;SDS011;51401;48.882;12.598;2023-04-25T09:01:26;2.97;;;2.67;;
64903;SDS011;51401;48.882;12.598;2023-04-25T09:03:52;3.15;;;2.50;;
64903;SDS011;51401;48.882;12.598;2023-04-25T09:06:17;4.88;;;3.20;;
64903;SDS011;51401;48.882;12.598;2023-04-25T09:08:44;4.38;;;2.88;;
64903;SDS011;51401;48.882;12.598;2023-04-25T09:11:10;4.25;;;3.05;;
64903;SDS011;51401;48.882;12.598;2023-04-25T09:13:35;3.85;;;2.90;;
64903;SDS011;51401;48.882;12.598;2023-04-25T09:16:00;3.55;;;3.00;;
64903;SDS011;51401;48.882;12.598;2023-04-25T09:20:53;6.47;;;3.00;;
64903;SDS011;51401;48.882;12.598;2023-04-25T09:23:20;5.00;;;2.63;;
64903;SDS011;51401;48.882;12.598;2023-04-25T09:25:47;3.42;;;2.83;;
64903;SDS011;51401;48.882;12.598;2023-04-25T09:28:13;4.32;;;2.72;;
64903;SDS011;51401;48.882;12.598;2023-04-25T09:30:39;3.58;;;2.55;;
64903;SDS011;51401;48.882;12.598;2023-04-25T09:33:07;3.15;;;2.33;;
64903;SDS011;51401;48.882;12.598;2023-04-25T09:35:37;4.82;;;2.67;;
64903;SDS011;51401;48.882;12.598;2023-04-25T09:38:07;3.35;;;2.50;;
64903;SDS011;51401;48.882;12.598;2023-04-25T09:40:33;3.78;;;2.55;;
64903;SDS011;51401;48.882;12.598;2023-04-25T09:42:58;4.37;;;2.83;;
64903;SDS011;51401;48.882;12.598;2023-04-25T09:45:24;3.03;;;2.58;;
64903;SDS011;51401;48.882;12.598;2023-04-25T09:47:49;3.07;;;2.70;;
64903;SDS011;51401;48.882;12.598;2023-04-25T09:50:15;3.20;;;2.28;;
64903;SDS011;51401;48.882;12.598;2023-04-25T09:52:41;4.18;;;2.40;;
64903;SDS011;51401;48.882;12.598;2023-04-25T09:55:07;2.72;;;2.20;;
64903;SDS011;51401;48.882;12.598;2023-04-25T09:57:32;2.58;;;1.63;;
64903;SDS011;51401;48.882;12.598;2023-04-25T09:59:58;3.03;;;1.75;;
64903;SDS011;51401;48.882;12.598;2023-04-25T10:02:26;2.17;;;1.85;;
64903;SDS011;51401;48.882;12.598;2023-04-25T10:04:55;3.20;;;2.10;;
64903;SDS011;51401;48.882;12.598;2023-04-25T10:07:25;2.17;;;1.90;;
64903;SDS011;51401;48.882;12.598;2023-04-25T10:09:54;2.75;;;2.00;;
64903;SDS011;51401;48.882;12.598;2023-04-25T10:12:24;3.10;;;2.33;;
64903;SDS011;51401;48.882;12.598;2023-04-25T10:14:52;3.70;;;2.20;;
64903;SDS011;51401;48.882;12.598;2023-04-25T10:17:17;5.90;;;2.55;;
64903;SDS011;51401;48.882;12.598;2023-04-25T10:19:45;3.92;;;2.90;;
64903;SDS011;51401;48.882;12.598;2023-04-25T10:22:17;3.05;;;2.75;;
64903;SDS011;51401;48.882;12.598;2023-04-25T10:24:48;2.80;;;2.50;;
64903;SDS011;51401;48.882;12.598;2023-04-25T10:27:15;4.45;;;2.25;;
64903;SDS011;51401;48.882;12.598;2023-04-25T10:29:41;4.28;;;1.95;;
64903;SDS011;51401;48.882;12.598;2023-04-25T10:32:09;2.33;;;1.80;;
64903;SDS011;51401;48.882;12.598;2023-04-25T10:37:04;2.63;;;2.13;;
64903;SDS011;51401;48.882;12.598;2023-04-25T10:39:30;3.60;;;2.28;;
64903;SDS011;51401;48.882;12.598;2023-04-25T10:41:57;3.25;;;2.80;;
64903;SDS011;51401;48.882;12.598;2023-04-25T10:46:59;3.85;;;2.53;;
64903;SDS011;51401;48.882;12.598;2023-04-25T10:49:44;3.67;;;2.50;;
64903;SDS011;51401;48.882;12.598;2023-04-25T10:54:54;3.67;;;2.35;;
64903;SDS011;51401;48.882;12.598;2023-04-25T11:02:43;2.60;;;2.15;;
64903;SDS011;51401;48.882;12.598;2023-04-25T11:05:10;2.47;;;2.08;;
64903;SDS011;51401;48.882;12.598;2023-04-25T11:10:09;2.40;;;1.92;;
64903;SDS011;51401;48.882;12.598;2023-04-25T11:12:34;2.80;;;1.85;;
64903;SDS011;51401;48.882;12.598;2023-04-25T11:15:00;2.25;;;1.85;;
64903;SDS011;51401;48.882;12.598;2023-04-25T11:17:28;4.00;;;2.22;;
64903;SDS011;51401;48.882;12.598;2023-04-25T11:19:54;2.42;;;1.80;;
64903;SDS011;51401;48.882;12.598;2023-04-25T11:22:20;2.00;;;1.80;;
64903;SDS011;51401;48.882;12.598;2023-04-25T11:24:46;2.88;;;1.98;;
64903;SDS011;51401;48.882;12.598;2023-04-25T11:27:12;2.22;;;1.80;;
64903;SDS011;51401;48.882;12.598;2023-04-25T11:29:37;2.80;;;1.63;;
64903;SDS011;51401;48.882;12.598;2023-04-25T11:32:02;2.50;;;1.70;;
64903;SDS011;51401;48.882;12.598;2023-04-25T11:34:29;2.33;;;1.80;;
64903;SDS011;51401;48.882;12.598;2023-04-25T11:36:55;2.80;;;2.20;;
64903;SDS011;51401;48.882;12.598;2023-04-25T11:39:21;2.10;;;1.63;;
64903;SDS011;51401;48.882;12.598;2023-04-25T11:41:48;1.52;;;1.35;;
64903;SDS011;51401;48.882;12.598;2023-04-25T11:44:16;1.77;;;1.52;;
64903;SDS011;51401;48.882;12.598;2023-04-25T11:46:43;2.28;;;1.40;;
64903;SDS011;51401;48.882;12.598;2023-04-25T11:49:08;1.73;;;1.30;;
64903;SDS011;51401;48.882;12.598;2023-04-25T11:51:38;1.83;;;1.33;;
64903;SDS011;51401;48.882;12.598;2023-04-25T11:54:08;2.47;;;1.60;;
64903;SDS011;51401;48.882;12.598;2023-04-25T11:56:33;2.28;;;1.52;;
64903;SDS011;51401;48.882;12.598;2023-04-25T11:58:59;1.95;;;1.33;;
64903;SDS011;51401;48.882;12.598;2023-04-25T12:01:34;4.03;;;1.60;;
64903;SDS011;51401;48.882;12.598;2023-04-25T12:06:46;2.65;;;1.55;;
64903;SDS011;51401;48.882;12.598;2023-04-25T12:09:13;3.60;;;2.10;;
64903;SDS011;51401;48.882;12.598;2023-04-25T12:12:01;2.08;;;1.65;;
64903;SDS011;51401;48.882;12.598;2023-04-25T12:14:30;2.75;;;2.05;;
64903;SDS011;51401;48.882;12.598;2023-04-25T12:16:58;2.30;;;2.03;;
64903;SDS011;51401;48.882;12.598;2023-04-25T12:19:25;2.30;;;1.52;;
64903;SDS011;51401;48.882;12.598;2023-04-25T12:21:56;1.95;;;1.50;;
64903;SDS011;51401;48.882;12.598;2023-04-25T12:24:22;1.80;;;1.35;;
64903;SDS011;51401;48.882;12.598;2023-04-25T12:26:51;1.55;;;1.38;;
64903;SDS011;51401;48.882;12.598;2023-04-25T12:29:24;1.52;;;1.23;;
64903;SDS011;51401;48.882;12.598;2023-04-25T12:31:50;2.03;;;1.40;;
64903;SDS011;51401;48.882;12.598;2023-04-25T12:34:17;1.75;;;1.35;;
64903;SDS011;51401;48.882;12.598;2023-04-25T12:36:46;1.80;;;1.50;;
64903;SDS011;51401;48.882;12.598;2023-04-25T12:39:19;2.42;;;1.40;;
64903;SDS011;51401;48.882;12.598;2023-04-25T12:41:47;1.40;;;1.30;;
64903;SDS011;51401;48.882;12.598;2023-04-25T12:44:13;1.55;;;1.00;;
64903;SDS011;51401;48.882;12.598;2023-04-25T12:46:38;1.13;;;1.02;;
64903;SDS011;51401;48.882;12.598;2023-04-25T12:49:05;1.30;;;1.02;;
64903;SDS011;51401;48.882;12.598;2023-04-25T12:51:32;1.58;;;1.27;;
64903;SDS011;51401;48.882;12.598;2023-04-25T12:54:01;2.17;;;1.35;;
64903;SDS011;51401;48.882;12.598;2023-04-25T12:56:29;1.73;;;1.33;;
64903;SDS011;51401;48.882;12.598;2023-04-25T12:58:55;1.40;;;1.30;;
64903;SDS011;51401;48.882;12.598;2023-04-25T13:01:20;2.35;;;1.38;;
64903;SDS011;51401;48.882;12.598;2023-04-25T13:03:47;2.10;;;1.50;;
64903;SDS011;51401;48.882;12.598;2023-04-25T13:06:13;2.75;;;1.50;;
64903;SDS011;51401;48.882;12.598;2023-04-25T13:08:38;2.03;;;1.42;;
64903;SDS011;51401;48.882;12.598;2023-04-25T13:11:04;2.65;;;1.30;;
64903;SDS011;51401;48.882;12.598;2023-04-25T13:13:31;1.80;;;1.40;;
64903;SDS011;51401;48.882;12.598;2023-04-25T13:15:56;1.42;;;1.30;;
64903;SDS011;51401;48.882;12.598;2023-04-25T13:18:22;2.15;;;1.40;;
64903;SDS011;51401;48.882;12.598;2023-04-25T13:20:51;1.73;;;1.40;;
64903;SDS011;51401;48.882;12.598;2023-04-25T13:23:19;1.70;;;1.20;;
64903;SDS011;51401;48.882;12.598;2023-04-25T13:25:46;2.35;;;1.55;;
64903;SDS011;51401;48.882;12.598;2023-04-25T13:28:12;1.60;;;1.38;;
64903;SDS011;51401;48.882;12.598;2023-04-25T13:30:37;2.28;;;1.48;;
64903;SDS011;51401;48.882;12.598;2023-04-25T13:33:03;4.55;;;1.63;;
64903;SDS011;51401;48.882;12.598;2023-04-25T13:35:29;2.42;;;1.50;;
64903;SDS011;51401;48.882;12.598;2023-04-25T13:37:55;2.40;;;1.50;;
64903;SDS011;51401;48.882;12.598;2023-04-25T13:40:21;5.90;;;1.70;;
64903;SDS011;51401;48.882;12.598;2023-04-25T13:42:47;1.80;;;1.50;;
64903;SDS011;51401;48.882;12.598;2023-04-25T13:45:12;2.85;;;1.80;;
64903;SDS011;51401;48.882;12.598;2023-04-25T13:47:37;2.97;;;1.42;;
64903;SDS011;51401;48.882;12.598;2023-04-25T13:50:03;1.88;;;1.20;;
64903;SDS011;51401;48.882;12.598;2023-04-25T13:52:33;2.33;;;1.60;;
64903;SDS011;51401;48.882;12.598;2023-04-25T13:54:58;2.42;;;2.00;;
64903;SDS011;51401;48.882;12.598;2023-04-25T13:57:24;1.95;;;1.50;;
64903;SDS011;51401;48.882;12.598;2023-04-25T13:59:50;2.05;;;1.65;;
64903;SDS011;51401;48.882;12.598;2023-04-25T14:02:16;2.42;;;2.05;;
64903;SDS011;51401;48.882;12.598;2023-04-25T14:04:41;1.60;;;1.35;;
64903;SDS011;51401;48.882;12.598;2023-04-25T14:07:07;3.38;;;1.50;;
64903;SDS011;51401;48.882;12.598;2023-04-25T14:09:33;2.10;;;1.75;;
64903;SDS011;51401;48.882;12.598;2023-04-25T14:11:59;2.85;;;1.92;;
64903;SDS011;51401;48.882;12.598;2023-04-25T14:14:24;2.70;;;1.73;;
64903;SDS011;51401;48.882;12.598;2023-04-25T14:16:50;1.95;;;1.55;;
64903;SDS011;51401;48.882;12.598;2023-04-25T14:19:18;2.08;;;1.40;;
64903;SDS011;51401;48.882;12.598;2023-04-25T14:21:44;2.13;;;1.50;;
64903;SDS011;51401;48.882;12.598;2023-04-25T14:24:09;1.92;;;1.50;;
64903;SDS011;51401;48.882;12.598;2023-04-25T14:26:35;2.45;;;1.40;;
64903;SDS011;51401;48.882;12.598;2023-04-25T14:29:01;2.97;;;1.95;;
64903;SDS011;51401;48.882;12.598;2023-04-25T14:31:27;3.80;;;1.35;;
64903;SDS011;51401;48.882;12.598;2023-04-25T14:33:53;1.60;;;1.40;;
64903;SDS011;51401;48.882;12.598;2023-04-25T14:36:18;3.22;;;1.70;;
64903;SDS011;51401;48.882;12.598;2023-04-25T14:38:43;3.85;;;1.90;;
64903;SDS011;51401;48.882;12.598;2023-04-25T14:41:09;1.60;;;1.50;;
64903;SDS011;51401;48.882;12.598;2023-04-25T14:43:35;2.35;;;1.70;;
64903;SDS011;51401;48.882;12.598;2023-04-25T14:46:01;3.13;;;1.67;;
64903;SDS011;51401;48.882;12.598;2023-04-25T14:48:27;4.20;;;1.80;;